Time;durP1;ratioP1;P1;durP2;ratioP2;P2;SDS_P1;SDS_P2;PMS_P1;PMS_P2;Temp;Humidity;BMP_temperature;BMP_pressure;BME280_temperature;BME280_humidity;BME280_pressure;Samples;Min_cycle;Max_cycle;Signal;HPM_P1;HPM_P2
2021/10/20 00:02:12;;;;;;;;;;;10.80;69.40;;;;;;5018051;28;90047;-48
2021/10/20 00:04:38;;;;;;;;;;;10.80;70.00;;;;;;5019537;28;87145;-48
2021/10/20 00:07:03;;;;;;;;;;;10.80;69.40;;;;;;5020494;28;87147;-49
2021/10/20 00:09:29;;;;;;;;;;;10.70;69.40;;;;;;5020354;28;87126;-49
2021/10/20 00:11:54;;;;;;;;;;;10.70;69.30;;;;;;5021157;28;88668;-50
2021/10/20 00:14:20;;;;;;;;;;;10.70;69.40;;;;;;5022447;28;88850;-48
2021/10/20 00:16:46;;;;;;;;;;;10.70;69.20;;;;;;5016996;28;88655;-48
2021/10/20 00:19:11;;;;;;;;;;;10.70;69.30;;;;;;5016425;28;88156;-48
2021/10/20 00:21:37;;;;;;;;;;;10.70;69.40;;;;;;5015989;28;88458;-48
2021/10/20 00:24:02;;;;;;;;;;;10.60;69.30;;;;;;5016691;28;87218;-48
2021/10/20 00:26:28;;;;;;;;;;;10.70;69.20;;;;;;5017258;28;88690;-49
2021/10/20 00:28:53;;;;;;;;;;;10.70;69.30;;;;;;5018583;28;88466;-48
2021/10/20 00:31:19;;;;;;;;;;;10.60;69.20;;;;;;5020254;28;87198;-50
2021/10/20 00:33:45;;;;;;;;;;;10.70;69.10;;;;;;5019870;28;87529;-48
2021/10/20 00:36:11;;;;;;;;;;;10.60;69.10;;;;;;5023067;28;89627;-51
2021/10/20 00:38:37;;;;;;;;;;;10.60;69.20;;;;;;5020526;28;89288;-50
2021/10/20 00:41:03;;;;;;;;;;;10.60;69.30;;;;;;5020177;28;88024;-48
2021/10/20 00:43:29;;;;;;;;;;;10.60;69.20;;;;;;5019063;28;88058;-49
2021/10/20 00:45:55;;;;;;;;;;;10.60;69.20;;;;;;5016239;28;87308;-47
2021/10/20 00:48:21;;;;;;;;;;;10.60;69.20;;;;;;5016562;28;87586;-48
2021/10/20 00:50:46;;;;;;;;;;;10.60;69.00;;;;;;5017254;28;88198;-49
2021/10/20 00:53:12;;;;;;;;;;;10.60;69.10;;;;;;5019038;28;88844;-47
2021/10/20 00:55:37;;;;;;;;;;;10.50;69.10;;;;;;5018658;28;88191;-47
2021/10/20 00:58:03;;;;;;;;;;;10.60;69.60;;;;;;5023118;28;87151;-49
2021/10/20 01:00:29;;;;;;;;;;;10.50;69.10;;;;;;5019541;28;88076;-49
2021/10/20 01:02:54;;;;;;;;;;;10.50;69.20;;;;;;5017360;28;87640;-47
2021/10/20 01:05:21;;;;;;;;;;;10.50;69.00;;;;;;5016203;28;87159;-48
2021/10/20 01:07:46;;;;;;;;;;;10.50;69.20;;;;;;5016335;28;87533;-47
2021/10/20 01:10:12;;;;;;;;;;;10.40;69.20;;;;;;5017237;28;87117;-47
2021/10/20 01:12:38;;;;;;;;;;;10.50;69.10;;;;;;5018122;28;87134;-48
2021/10/20 01:15:05;;;;;;;;;;;10.50;69.10;;;;;;5017471;28;88787;-47
2021/10/20 01:17:31;;;;;;;;;;;10.50;69.00;;;;;;5017670;28;87188;-48
2021/10/20 01:19:58;;;;;;;;;;;10.40;69.00;;;;;;5021390;28;87950;-48
2021/10/20 01:22:24;;;;;;;;;;;10.50;69.10;;;;;;5017799;28;87201;-48
2021/10/20 01:24:50;;;;;;;;;;;10.40;69.00;;;;;;5018330;28;87230;-48
2021/10/20 01:27:15;;;;;;;;;;;10.40;68.90;;;;;;5017589;28;89724;-48
2021/10/20 01:29:41;;;;;;;;;;;10.40;69.00;;;;;;5017317;28;87223;-47
2021/10/20 01:32:06;;;;;;;;;;;10.40;69.10;;;;;;5019465;28;87005;-48
2021/10/20 01:34:33;;;;;;;;;;;10.30;69.20;;;;;;5020935;28;89904;-48
2021/10/20 01:37:00;;;;;;;;;;;10.30;69.00;;;;;;5020888;28;87210;-48
2021/10/20 01:39:26;;;;;;;;;;;10.30;69.10;;;;;;5018337;28;88296;-49
2021/10/20 01:41:51;;;;;;;;;;;10.30;69.20;;;;;;5022623;28;88012;-48
2021/10/20 01:44:17;;;;;;;;;;;10.30;69.00;;;;;;5021364;28;87556;-48
2021/10/20 01:46:42;;;;;;;;;;;10.30;69.00;;;;;;5021373;28;87742;-47
2021/10/20 01:49:08;;;;;;;;;;;10.30;69.00;;;;;;5022307;28;87158;-48
2021/10/20 01:51:33;;;;;;;;;;;10.30;68.90;;;;;;5023206;28;89345;-50
2021/10/20 01:53:59;;;;;;;;;;;10.30;68.80;;;;;;5020138;28;88396;-48
2021/10/20 01:56:24;;;;;;;;;;;10.30;68.80;;;;;;5019663;28;86457;-49
2021/10/20 01:58:50;;;;;;;;;;;10.30;68.90;;;;;;5018915;28;88272;-47
2021/10/20 02:01:16;;;;;;;;;;;10.20;68.90;;;;;;5021024;28;88215;-47
2021/10/20 02:03:41;;;;;;;;;;;10.20;68.90;;;;;;5018162;28;89808;-49
2021/10/20 02:06:09;;;;;;;;;;;10.20;68.90;;;;;;5018996;28;87153;-48
2021/10/20 02:08:34;;;;;;;;;;;10.20;68.80;;;;;;5019366;28;87903;-48
2021/10/20 02:11:00;;;;;;;;;;;10.20;68.90;;;;;;5018842;28;89562;-49
2021/10/20 02:13:25;;;;;;;;;;;10.20;68.90;;;;;;5019784;28;87701;-47
2021/10/20 02:15:52;;;;;;;;;;;10.20;68.90;;;;;;5021182;28;87199;-47
2021/10/20 02:18:17;;;;;;;;;;;10.10;69.60;;;;;;5021564;28;87139;-48
2021/10/20 02:20:43;;;;;;;;;;;10.10;69.00;;;;;;5022800;28;86416;-49
2021/10/20 02:23:09;;;;;;;;;;;10.10;68.90;;;;;;5024660;28;88074;-48
2021/10/20 02:25:34;;;;;;;;;;;10.10;69.00;;;;;;5017866;28;88234;-48
2021/10/20 02:28:00;;;;;;;;;;;10.10;68.90;;;;;;5017912;28;88125;-49
2021/10/20 02:30:25;;;;;;;;;;;10.10;69.00;;;;;;5018875;28;89456;-49
2021/10/20 02:32:52;;;;;;;;;;;10.00;69.00;;;;;;5019707;28;88191;-48
2021/10/20 02:35:17;;;;;;;;;;;10.00;69.20;;;;;;5020074;28;87184;-48
2021/10/20 02:37:45;;;;;;;;;;;10.00;69.20;;;;;;5021348;28;87511;-48
2021/10/20 02:40:11;;;;;;;;;;;10.00;69.10;;;;;;5019176;28;89767;-48
2021/10/20 02:42:37;;;;;;;;;;;9.90;69.10;;;;;;5019053;28;87291;-47
2021/10/20 02:45:02;;;;;;;;;;;9.90;69.10;;;;;;5024243;28;87716;-49
2021/10/20 02:47:28;;;;;;;;;;;9.90;69.00;;;;;;5021921;28;87128;-50
2021/10/20 02:49:54;;;;;;;;;;;9.90;69.00;;;;;;5021052;28;88677;-49
2021/10/20 02:52:19;;;;;;;;;;;9.90;69.00;;;;;;5016896;28;90508;-48
2021/10/20 02:54:45;;;;;;;;;;;9.90;69.00;;;;;;5018646;28;87258;-49
2021/10/20 02:57:10;;;;;;;;;;;9.90;69.00;;;;;;5019986;28;87426;-47
2021/10/20 02:59:36;;;;;;;;;;;9.80;69.00;;;;;;5020861;28;88289;-49
2021/10/20 03:02:01;;;;;;;;;;;9.80;69.20;;;;;;5022295;28;87173;-48
2021/10/20 03:04:27;;;;;;;;;;;9.80;69.10;;;;;;5019581;28;88648;-47
2021/10/20 03:06:52;;;;;;;;;;;9.80;69.20;;;;;;5020608;28;88165;-47
2021/10/20 03:09:18;;;;;;;;;;;9.80;69.10;;;;;;5019658;28;87324;-48
2021/10/20 03:11:43;;;;;;;;;;;9.80;69.00;;;;;;5019994;28;89817;-49
2021/10/20 03:14:09;;;;;;;;;;;9.80;69.00;;;;;;5020946;28;87203;-48
2021/10/20 03:16:35;;;;;;;;;;;9.80;69.00;;;;;;5019969;28;88813;-48
2021/10/20 03:19:01;;;;;;;;;;;9.80;69.00;;;;;;5021389;28;88330;-48
2021/10/20 03:21:26;;;;;;;;;;;9.80;69.00;;;;;;5020650;28;88702;-47
2021/10/20 03:23:52;;;;;;;;;;;9.80;69.00;;;;;;5017229;28;89258;-47
2021/10/20 03:26:17;;;;;;;;;;;9.80;69.00;;;;;;5018066;28;88333;-47
2021/10/20 03:28:43;;;;;;;;;;;9.70;69.00;;;;;;5022617;28;87205;-48
2021/10/20 03:31:08;;;;;;;;;;;9.70;68.90;;;;;;5020480;28;88294;-49
2021/10/20 03:33:34;;;;;;;;;;;9.70;69.10;;;;;;5022098;28;87322;-49
2021/10/20 03:35:59;;;;;;;;;;;9.70;69.10;;;;;;5018822;28;88699;-47
2021/10/20 03:38:25;;;;;;;;;;;9.70;69.10;;;;;;5017178;28;87697;-48
2021/10/20 03:40:50;;;;;;;;;;;9.70;69.00;;;;;;5018056;28;88089;-47
2021/10/20 03:43:16;;;;;;;;;;;9.70;68.90;;;;;;5019573;28;88516;-47
2021/10/20 03:45:42;;;;;;;;;;;9.70;68.90;;;;;;5019506;28;88483;-48
2021/10/20 03:48:07;;;;;;;;;;;9.60;68.80;;;;;;5020836;28;87221;-48
2021/10/20 03:50:33;;;;;;;;;;;9.60;69.00;;;;;;5022975;28;88755;-47
2021/10/20 03:52:58;;;;;;;;;;;9.60;68.90;;;;;;5017302;28;88203;-47
2021/10/20 03:55:24;;;;;;;;;;;9.60;69.00;;;;;;5017643;28;87553;-51
2021/10/20 03:57:50;;;;;;;;;;;9.60;69.10;;;;;;5018449;28;87274;-47
2021/10/20 04:00:17;;;;;;;;;;;9.60;69.00;;;;;;5019521;28;87203;-48
2021/10/20 04:02:44;;;;;;;;;;;9.60;68.90;;;;;;5018924;28;87129;-50
2021/10/20 04:05:13;;;;;;;;;;;9.50;69.00;;;;;;5016797;28;90335;-47
2021/10/20 04:07:40;;;;;;;;;;;9.50;69.00;;;;;;5020751;28;87275;-49
2021/10/20 04:10:11;;;;;;;;;;;9.50;69.00;;;;;;5022961;28;88782;-49
2021/10/20 04:12:36;;;;;;;;;;;9.50;69.00;;;;;;5019064;28;87171;-49
2021/10/20 04:15:02;;;;;;;;;;;9.50;68.90;;;;;;5018530;28;87575;-48
2021/10/20 04:17:28;;;;;;;;;;;9.50;69.00;;;;;;5016981;28;87750;-49
2021/10/20 04:19:54;;;;;;;;;;;9.50;69.00;;;;;;5018315;28;87271;-48
2021/10/20 04:22:19;;;;;;;;;;;9.50;68.80;;;;;;5019382;28;88634;-50
2021/10/20 04:24:45;;;;;;;;;;;9.50;68.90;;;;;;5017863;28;88430;-48
2021/10/20 04:27:10;;;;;;;;;;;9.40;68.90;;;;;;5019296;28;87157;-48
2021/10/20 04:29:36;;;;;;;;;;;9.40;68.90;;;;;;5019929;28;88204;-49
2021/10/20 04:32:01;;;;;;;;;;;9.40;68.90;;;;;;5023065;28;88431;-48
2021/10/20 04:34:27;;;;;;;;;;;9.40;68.90;;;;;;5020179;28;87971;-48
2021/10/20 04:36:52;;;;;;;;;;;9.40;68.90;;;;;;5016542;28;89299;-48
2021/10/20 04:39:18;;;;;;;;;;;9.40;68.90;;;;;;5017049;28;87203;-48
2021/10/20 04:41:43;;;;;;;;;;;9.40;68.90;;;;;;5018349;28;87300;-48
2021/10/20 04:44:09;;;;;;;;;;;9.40;68.80;;;;;;5019222;28;88194;-49
2021/10/20 04:46:34;;;;;;;;;;;9.30;68.90;;;;;;5021458;28;86477;-49
2021/10/20 04:49:00;;;;;;;;;;;9.30;68.90;;;;;;5017877;28;88229;-48
2021/10/20 04:51:26;;;;;;;;;;;9.30;68.90;;;;;;5015925;28;88082;-48
2021/10/20 04:53:51;;;;;;;;;;;9.30;68.90;;;;;;5019982;28;88058;-49
2021/10/20 04:56:17;;;;;;;;;;;9.30;68.90;;;;;;5018558;28;88130;-48
2021/10/20 04:58:42;;;;;;;;;;;9.20;68.90;;;;;;5019750;28;87162;-50
2021/10/20 05:01:08;;;;;;;;;;;9.30;68.90;;;;;;5019704;28;89509;-49
2021/10/20 05:03:33;;;;;;;;;;;9.20;69.00;;;;;;5019292;28;88568;-48
2021/10/20 05:05:59;;;;;;;;;;;9.20;68.90;;;;;;5020365;28;88111;-50
2021/10/20 05:08:25;;;;;;;;;;;9.20;68.90;;;;;;5020718;28;87379;-52
2021/10/20 05:10:50;;;;;;;;;;;9.20;68.80;;;;;;5019969;28;87269;-48
2021/10/20 05:13:16;;;;;;;;;;;9.20;68.90;;;;;;5021052;28;87279;-48
2021/10/20 05:15:42;;;;;;;;;;;9.20;68.80;;;;;;5024581;28;87253;-49
2021/10/20 05:18:10;;;;;;;;;;;9.20;68.90;;;;;;5020101;28;88175;-48
2021/10/20 05:20:36;;;;;;;;;;;9.20;68.90;;;;;;5019365;28;89935;-50
2021/10/20 05:23:01;;;;;;;;;;;9.20;68.80;;;;;;5019757;28;88152;-48
2021/10/20 05:25:27;;;;;;;;;;;9.20;68.80;;;;;;5021130;28;87151;-49
2021/10/20 05:27:52;;;;;;;;;;;9.20;68.70;;;;;;5022598;28;87496;-48
2021/10/20 05:30:18;;;;;;;;;;;9.20;68.70;;;;;;5022088;28;89620;-48
2021/10/20 05:32:43;;;;;;;;;;;9.10;68.70;;;;;;5022710;28;87192;-49
2021/10/20 05:35:09;;;;;;;;;;;9.10;68.80;;;;;;5023462;28;89096;-49
2021/10/20 05:37:35;;;;;;;;;;;9.10;68.80;;;;;;5025910;28;88975;-51
2021/10/20 05:40:01;;;;;;;;;;;9.10;68.80;;;;;;5023980;28;87268;-50
2021/10/20 05:42:26;;;;;;;;;;;9.10;68.80;;;;;;5022028;28;89748;-49
2021/10/20 05:44:52;;;;;;;;;;;9.10;68.80;;;;;;5022360;28;87891;-49
2021/10/20 05:47:19;;;;;;;;;;;9.10;68.80;;;;;;5018884;28;89272;-48
2021/10/20 05:49:44;;;;;;;;;;;9.10;68.80;;;;;;5022639;28;89844;-51
2021/10/20 05:52:10;;;;;;;;;;;9.00;68.80;;;;;;5021427;28;87196;-50
2021/10/20 05:54:35;;;;;;;;;;;9.00;68.80;;;;;;5019004;28;87223;-49
2021/10/20 05:57:01;;;;;;;;;;;9.10;68.90;;;;;;5019661;28;88451;-48
2021/10/20 05:59:27;;;;;;;;;;;9.10;68.80;;;;;;5024468;28;86403;-50
2021/10/20 06:01:52;;;;;;;;;;;9.10;68.70;;;;;;5021909;28;89367;-48
2021/10/20 06:04:19;;;;;;;;;;;9.10;68.60;;;;;;5022994;28;88896;-48
2021/10/20 06:06:45;;;;;;;;;;;9.10;68.70;;;;;;5022448;28;89577;-48
2021/10/20 06:09:10;;;;;;;;;;;9.00;68.70;;;;;;5021519;28;88508;-48
2021/10/20 06:11:36;;;;;;;;;;;9.00;68.60;;;;;;5019191;28;88712;-49
2021/10/20 06:14:02;;;;;;;;;;;9.00;68.60;;;;;;5019033;28;88939;-48
2021/10/20 06:16:28;;;;;;;;;;;9.00;68.70;;;;;;5019346;28;87329;-48
2021/10/20 06:18:53;;;;;;;;;;;9.00;68.70;;;;;;5023775;28;87088;-49
2021/10/20 06:21:19;;;;;;;;;;;9.00;68.70;;;;;;5021369;28;87587;-48
2021/10/20 06:23:44;;;;;;;;;;;9.00;68.70;;;;;;5022079;28;86391;-48
2021/10/20 06:26:10;;;;;;;;;;;9.00;68.60;;;;;;5022919;28;87970;-47
2021/10/20 06:28:35;;;;;;;;;;;9.00;68.50;;;;;;5019569;28;89787;-48
2021/10/20 06:31:01;;;;;;;;;;;9.00;68.50;;;;;;5017731;28;88092;-48
2021/10/20 06:33:27;;;;;;;;;;;9.00;68.70;;;;;;5019573;28;88572;-48
2021/10/20 06:35:54;;;;;;;;;;;9.00;68.60;;;;;;5020301;28;88391;-48
2021/10/20 06:38:20;;;;;;;;;;;9.00;68.70;;;;;;5019207;28;87155;-49
2021/10/20 06:40:46;;;;;;;;;;;9.00;68.70;;;;;;5022426;28;87231;-49
2021/10/20 06:43:11;;;;;;;;;;;9.00;68.70;;;;;;5021114;28;87152;-48
2021/10/20 06:45:37;;;;;;;;;;;9.00;68.70;;;;;;5021489;28;87238;-48
2021/10/20 06:48:03;;;;;;;;;;;9.00;68.60;;;;;;5020762;28;88552;-51
2021/10/20 06:50:29;;;;;;;;;;;9.00;68.50;;;;;;5021150;28;87156;-48
2021/10/20 06:52:54;;;;;;;;;;;9.00;68.50;;;;;;5022247;28;88804;-52
2021/10/20 06:55:20;;;;;;;;;;;9.00;69.20;;;;;;5019415;28;89748;-49
2021/10/20 06:57:45;;;;;;;;;;;9.00;68.70;;;;;;5017924;28;87174;-48
2021/10/20 07:00:11;;;;;;;;;;;9.00;68.70;;;;;;5019252;28;87655;-49
2021/10/20 07:02:37;;;;;;;;;;;9.00;68.60;;;;;;5021739;28;88846;-47
2021/10/20 07:05:04;;;;;;;;;;;9.00;68.70;;;;;;5020373;28;89163;-48
2021/10/20 07:07:30;;;;;;;;;;;9.00;68.70;;;;;;5018725;28;89745;-49
2021/10/20 07:09:55;;;;;;;;;;;9.00;68.70;;;;;;5020303;28;87142;-48
2021/10/20 07:12:22;;;;;;;;;;;9.00;68.80;;;;;;5021008;28;88513;-48
2021/10/20 07:14:48;;;;;;;;;;;8.90;68.80;;;;;;5019781;28;88838;-49
2021/10/20 07:17:13;;;;;;;;;;;9.00;68.80;;;;;;5020944;28;87198;-48
2021/10/20 07:19:39;;;;;;;;;;;9.00;68.80;;;;;;5021701;28;88470;-48
2021/10/20 07:22:08;;;;;;;;;;;8.90;68.90;;;;;;5018782;28;87632;-48
2021/10/20 07:24:34;;;;;;;;;;;8.90;68.80;;;;;;5022647;28;87209;-48
2021/10/20 07:26:59;;;;;;;;;;;9.00;68.70;;;;;;5020076;28;88076;-48
2021/10/20 07:29:25;;;;;;;;;;;8.90;68.80;;;;;;5020780;28;87257;-49
2021/10/20 07:31:50;;;;;;;;;;;8.90;69.00;;;;;;5020039;28;89234;-48
2021/10/20 07:34:16;;;;;;;;;;;8.90;68.90;;;;;;5016799;28;89569;-49
2021/10/20 07:36:42;;;;;;;;;;;8.90;69.00;;;;;;5017728;28;86517;-48
2021/10/20 07:39:08;;;;;;;;;;;8.90;69.00;;;;;;5017148;28;88221;-48
2021/10/20 07:41:34;;;;;;;;;;;8.90;68.90;;;;;;5017637;28;88229;-48
2021/10/20 07:44:00;;;;;;;;;;;8.90;69.10;;;;;;5018399;28;88142;-48
2021/10/20 07:46:26;;;;;;;;;;;8.90;69.10;;;;;;5021499;28;89482;-48
2021/10/20 07:48:51;;;;;;;;;;;8.90;69.20;;;;;;5018929;28;87135;-49
2021/10/20 07:51:17;;;;;;;;;;;8.90;69.30;;;;;;5020019;28;89013;-48
2021/10/20 07:53:42;;;;;;;;;;;8.90;69.20;;;;;;5021109;28;88017;-50
2021/10/20 07:56:08;;;;;;;;;;;8.90;69.30;;;;;;5019247;28;87993;-48
2021/10/20 07:58:35;;;;;;;;;;;8.90;70.00;;;;;;5017000;28;87156;-53
2021/10/20 08:01:01;;;;;;;;;;;8.80;69.30;;;;;;5017897;28;88551;-47
2021/10/20 08:03:27;;;;;;;;;;;8.80;69.60;;;;;;5017064;28;87151;-48
2021/10/20 08:05:53;;;;;;;;;;;8.80;69.60;;;;;;5019211;28;88791;-47
2021/10/20 08:08:19;;;;;;;;;;;8.80;69.60;;;;;;5016743;28;88208;-47
2021/10/20 08:10:45;;;;;;;;;;;8.80;69.70;;;;;;5018583;28;87154;-48
2021/10/20 08:13:10;;;;;;;;;;;8.80;69.80;;;;;;5017663;28;89564;-48
2021/10/20 08:15:38;;;;;;;;;;;8.80;69.80;;;;;;5017239;28;87184;-47
2021/10/20 08:18:04;;;;;;;;;;;8.80;69.80;;;;;;5020400;28;88516;-47
2021/10/20 08:20:32;;;;;;;;;;;8.80;69.70;;;;;;5018929;28;89755;-49
2021/10/20 08:22:58;;;;;;;;;;;8.80;69.90;;;;;;5017708;28;87130;-48
2021/10/20 08:25:24;;;;;;;;;;;8.80;70.00;;;;;;5017489;28;88860;-47
2021/10/20 08:27:49;;;;;;;;;;;8.80;69.90;;;;;;5021029;28;88180;-49
2021/10/20 08:30:18;;;;;;;;;;;8.80;70.10;;;;;;5019710;28;87131;-49
2021/10/20 08:32:47;;;;;;;;;;;8.70;70.00;;;;;;5015508;28;90539;-47
2021/10/20 08:35:15;;;;;;;;;;;8.70;70.00;;;;;;5020458;28;87166;-47
2021/10/20 08:37:42;;;;;;;;;;;8.70;70.80;;;;;;5017307;28;88017;-48
2021/10/20 08:40:09;;;;;;;;;;;8.70;70.10;;;;;;5015723;28;89502;-48
2021/10/20 08:42:35;;;;;;;;;;;8.70;70.10;;;;;;5016320;28;87848;-47
2021/10/20 08:45:01;;;;;;;;;;;8.70;70.30;;;;;;5016791;28;87249;-47
2021/10/20 08:47:28;;;;;;;;;;;8.70;70.40;;;;;;5016277;28;87909;-48
2021/10/20 08:49:53;;;;;;;;;;;8.70;70.40;;;;;;5019456;28;86444;-48
2021/10/20 08:52:19;;;;;;;;;;;8.70;70.30;;;;;;5016898;28;88563;-47
2021/10/20 08:54:44;;;;;;;;;;;8.70;70.40;;;;;;5018498;28;87144;-47
2021/10/20 08:57:10;;;;;;;;;;;8.70;70.30;;;;;;5019111;28;88182;-48
2021/10/20 08:59:35;;;;;;;;;;;8.70;70.20;;;;;;5020262;28;88014;-47
2021/10/20 09:02:04;;;;;;;;;;;8.80;70.40;;;;;;5017486;28;88167;-48
2021/10/20 09:04:30;;;;;;;;;;;8.70;70.50;;;;;;5019071;28;87206;-48
2021/10/20 09:06:59;;;;;;;;;;;8.70;70.60;;;;;;5018710;28;89249;-46
2021/10/20 09:09:30;;;;;;;;;;;8.70;70.60;;;;;;5014677;28;87144;-47
2021/10/20 09:11:56;;;;;;;;;;;8.70;73.40;;;;;;5019043;28;87199;-60
2021/10/20 09:14:21;;;;;;;;;;;8.80;75.10;;;;;;5018186;28;86377;-46
2021/10/20 09:16:47;;;;;;;;;;;9.00;75.10;;;;;;5017764;28;88387;-46
2021/10/20 09:19:17;;;;;;;;;;;9.00;74.70;;;;;;5018216;28;89397;-44
2021/10/20 09:21:46;;;;;;;;;;;9.10;75.80;;;;;;5019431;28;88199;-45
2021/10/20 09:24:11;;;;;;;;;;;9.10;75.00;;;;;;5016638;28;88930;-50
2021/10/20 09:26:37;;;;;;;;;;;9.10;74.90;;;;;;5017780;28;88699;-45
2021/10/20 09:29:03;;;;;;;;;;;9.10;76.00;;;;;;5019383;28;87126;-46
2021/10/20 09:31:28;;;;;;;;;;;9.20;75.80;;;;;;5019877;28;88020;-45
2021/10/20 09:34:04;;;;;;;;;;;9.20;75.30;;;;;;5019984;28;87963;-46
2021/10/20 09:36:29;;;;;;;;;;;9.30;74.60;;;;;;5016264;28;87506;-45
2021/10/20 09:38:55;;;;;;;;;;;9.40;74.30;;;;;;5017498;28;86950;-44
2021/10/20 09:41:25;;;;;;;;;;;9.30;74.00;;;;;;5016853;28;87114;-44
2021/10/20 09:43:56;;;;;;;;;;;9.40;73.50;;;;;;5016384;28;87126;-45
2021/10/20 09:46:32;;;;;;;;;;;9.40;72.70;;;;;;5014328;28;88575;-45
2021/10/20 09:49:02;;;;;;;;;;;9.40;72.80;;;;;;5015823;28;88756;-45
2021/10/20 09:51:28;;;;;;;;;;;9.30;72.70;;;;;;5016447;28;87517;-45
2021/10/20 09:53:53;;;;;;;;;;;9.30;72.70;;;;;;5020465;28;87164;-43
2021/10/20 09:56:20;;;;;;;;;;;9.40;74.80;;;;;;5025136;28;87176;-47
2021/10/20 09:58:47;;;;;;;;;;;9.50;74.90;;;;;;5021144;28;88941;-53
2021/10/20 10:01:13;;;;;;;;;;;9.60;74.50;;;;;;5021857;28;87157;-46
2021/10/20 10:03:39;;;;;;;;;;;9.70;74.10;;;;;;5022822;28;86902;-45
2021/10/20 10:06:04;;;;;;;;;;;9.70;74.80;;;;;;5022549;28;88061;-47
2021/10/20 10:08:30;;;;;;;;;;;9.80;74.30;;;;;;5021406;28;88953;-47
2021/10/20 10:10:56;;;;;;;;;;;9.70;73.80;;;;;;5017860;28;88098;-48
2021/10/20 10:13:25;;;;;;;;;;;9.70;73.50;;;;;;5018349;28;89454;-46
2021/10/20 10:15:53;;;;;;;;;;;9.70;73.10;;;;;;5024921;28;87155;-47
2021/10/20 10:18:19;;;;;;;;;;;9.70;72.50;;;;;;5019607;28;87928;-47
2021/10/20 10:20:45;;;;;;;;;;;9.70;72.40;;;;;;5020518;28;87188;-48
2021/10/20 10:23:36;;;;;;;;;;;9.70;72.30;;;;;;5020975;28;89283;-47
2021/10/20 10:26:05;;;;;;;;;;;9.60;72.30;;;;;;5019629;27;87539;-47
2021/10/20 10:28:32;;;;;;;;;;;9.60;72.30;;;;;;5018804;28;86377;-47
2021/10/20 10:31:05;;;;;;;;;;;9.60;72.40;;;;;;5018286;28;87154;-52
2021/10/20 10:33:33;;;;;;;;;;;9.60;74.00;;;;;;5021608;28;88496;-57
2021/10/20 10:36:19;;;;;;;;;;;9.80;75.00;;;;;;5020207;28;88160;-46
2021/10/20 10:38:45;;;;;;;;;;;9.90;73.60;;;;;;5023366;28;89631;-48
2021/10/20 10:41:42;;;;;;;;;;;10.00;73.20;;;;;;5022232;28;87204;-50
2021/10/20 10:44:09;;;;;;;;;;;10.10;72.50;;;;;;5008236;28;89184;-49
2021/10/20 10:46:35;;;;;;;;;;;10.30;73.80;;;;;;5020621;28;88170;-46
2021/10/20 10:49:01;;;;;;;;;;;10.40;73.60;;;;;;5021191;28;87180;-51
2021/10/20 10:51:27;;;;;;;;;;;10.50;73.30;;;;;;5020298;28;87252;-53
2021/10/20 10:53:53;;;;;;;;;;;10.50;72.90;;;;;;5021640;28;86735;-47
2021/10/20 10:56:19;;;;;;;;;;;10.60;72.20;;;;;;5021526;28;87227;-47
2021/10/20 10:58:59;;;;;;;;;;;10.60;72.50;;;;;;5022077;28;87537;-45
2021/10/20 11:01:44;;;;;;;;;;;10.60;72.30;;;;;;5023063;28;88662;-45
2021/10/20 11:04:16;;;;;;;;;;;10.60;71.60;;;;;;5021205;28;87731;-44
2021/10/20 11:06:41;;;;;;;;;;;10.60;72.20;;;;;;5018842;28;87556;-44
2021/10/20 11:09:07;;;;;;;;;;;10.60;71.80;;;;;;5019559;28;87163;-44
2021/10/20 11:11:33;;;;;;;;;;;10.60;72.60;;;;;;5019670;28;87562;-48
2021/10/20 11:14:00;;;;;;;;;;;10.60;72.80;;;;;;5020673;28;88148;-46
2021/10/20 11:16:26;;;;;;;;;;;10.80;72.10;;;;;;5019834;28;87317;-53
2021/10/20 11:18:52;;;;;;;;;;;10.90;73.10;;;;;;5021553;28;87727;-50
2021/10/20 11:21:19;;;;;;;;;;;10.90;71.90;;;;;;5020552;28;88187;-50
2021/10/20 11:23:45;;;;;;;;;;;10.80;70.90;;;;;;5022633;28;87155;-52
2021/10/20 11:26:10;;;;;;;;;;;10.80;69.70;;;;;;5020310;28;88166;-52
2021/10/20 11:28:36;;;;;;;;;;;10.80;70.50;;;;;;5022228;28;87229;-44
2021/10/20 11:31:05;;;;;;;;;;;11.00;71.20;;;;;;5019448;28;88223;-53
2021/10/20 11:33:31;;;;;;;;;;;10.90;70.70;;;;;;5019127;28;89930;-61
2021/10/20 11:35:56;;;;;;;;;;;10.90;69.70;;;;;;5020891;28;87140;-50
2021/10/20 11:38:22;;;;;;;;;;;11.00;70.00;;;;;;5020861;28;87341;-57
2021/10/20 11:40:50;;;;;;;;;;;11.00;70.80;;;;;;5018406;28;87716;-51
2021/10/20 11:43:20;;;;;;;;;;;11.10;70.70;;;;;;5021578;28;86435;-61
2021/10/20 11:45:46;;;;;;;;;;;11.20;71.30;;;;;;5023069;28;88389;-62
2021/10/20 11:48:13;;;;;;;;;;;11.20;70.40;;;;;;5020917;28;87188;-60
2021/10/20 11:50:38;;;;;;;;;;;11.20;70.70;;;;;;5017103;28;89050;-61
2021/10/20 11:53:07;;;;;;;;;;;11.20;70.60;;;;;;5017778;28;88387;-56
2021/10/20 11:55:32;;;;;;;;;;;11.20;70.00;;;;;;5020157;28;88721;-49
2021/10/20 11:58:01;;;;;;;;;;;11.30;70.00;;;;;;5017965;28;88579;-54
2021/10/20 12:00:26;;;;;;;;;;;11.30;69.00;;;;;;5018888;28;89615;-58
2021/10/20 12:02:52;;;;;;;;;;;11.40;68.70;;;;;;5020489;28;87145;-58
2021/10/20 12:05:18;;;;;;;;;;;11.40;67.70;;;;;;5021078;28;88782;-56
2021/10/20 12:07:46;;;;;;;;;;;11.40;69.20;;;;;;5020754;28;87620;-55
2021/10/20 12:10:12;;;;;;;;;;;11.30;69.40;;;;;;5020333;28;87537;-55
2021/10/20 12:12:37;;;;;;;;;;;11.30;69.60;;;;;;5020908;28;88140;-56
2021/10/20 12:15:03;;;;;;;;;;;11.30;69.60;;;;;;5017760;28;89435;-55
2021/10/20 12:17:29;;;;;;;;;;;11.30;69.50;;;;;;5019495;28;88883;-56
2021/10/20 12:20:01;;;;;;;;;;;11.20;69.60;;;;;;5017210;28;88795;-55
2021/10/20 12:22:27;;;;;;;;;;;11.20;69.90;;;;;;5018950;28;88643;-55
2021/10/20 12:24:54;;;;;;;;;;;11.10;70.30;;;;;;5019164;28;88122;-55
2021/10/20 12:27:20;;;;;;;;;;;11.10;70.10;;;;;;5022123;28;89032;-53
2021/10/20 12:29:47;;;;;;;;;;;11.10;69.50;;;;;;5019414;28;88859;-60
2021/10/20 12:32:13;;;;;;;;;;;11.30;69.40;;;;;;5019252;28;88679;-47
2021/10/20 12:34:48;;;;;;;;;;;11.50;69.10;;;;;;5019943;28;88181;-47
2021/10/20 12:37:15;;;;;;;;;;;11.40;68.30;;;;;;5016874;28;87632;-45
2021/10/20 12:39:40;;;;;;;;;;;11.50;69.00;;;;;;5015384;28;88552;-46
2021/10/20 12:42:06;;;;;;;;;;;11.60;69.20;;;;;;5017629;28;87141;-44
2021/10/20 12:44:32;;;;;;;;;;;11.70;69.10;;;;;;5018473;28;87404;-46
2021/10/20 12:46:58;;;;;;;;;;;11.70;69.40;;;;;;5019371;28;87969;-46
2021/10/20 12:49:32;;;;;;;;;;;11.70;69.50;;;;;;5023389;28;87185;-50
2021/10/20 12:51:57;;;;;;;;;;;11.70;68.30;;;;;;5016771;28;88166;-47
2021/10/20 12:54:23;;;;;;;;;;;11.70;67.70;;;;;;5018469;28;87146;-47
2021/10/20 12:56:54;;;;;;;;;;;11.80;67.80;;;;;;5020239;28;87551;-51
2021/10/20 12:59:20;;;;;;;;;;;12.00;67.20;;;;;;5019985;28;87676;-50
2021/10/20 13:01:45;;;;;;;;;;;11.90;67.00;;;;;;5020567;28;87243;-45
2021/10/20 13:04:11;;;;;;;;;;;11.90;68.40;;;;;;5016428;28;89696;-49
2021/10/20 13:06:37;;;;;;;;;;;11.90;68.20;;;;;;5015964;28;90091;-57
2021/10/20 13:09:03;;;;;;;;;;;12.00;67.50;;;;;;5017323;28;87143;-50
2021/10/20 13:11:28;;;;;;;;;;;12.00;67.70;;;;;;5019755;28;88759;-46
2021/10/20 13:13:54;;;;;;;;;;;12.00;68.10;;;;;;5018653;28;87215;-55
2021/10/20 13:16:19;;;;;;;;;;;12.00;68.60;;;;;;5019941;28;87235;-57
2021/10/20 13:18:45;;;;;;;;;;;12.00;67.60;;;;;;5018607;28;88047;-52
2021/10/20 13:21:11;;;;;;;;;;;12.10;68.10;;;;;;5020171;28;87620;-52
2021/10/20 13:23:37;;;;;;;;;;;12.10;67.30;;;;;;5019712;28;87215;-57
2021/10/20 13:26:04;;;;;;;;;;;12.10;67.50;;;;;;5017499;28;87275;-49
2021/10/20 13:28:30;;;;;;;;;;;12.10;68.10;;;;;;5019528;28;88100;-56
2021/10/20 13:30:55;;;;;;;;;;;12.20;66.40;;;;;;5021529;28;88441;-46
2021/10/20 13:33:21;;;;;;;;;;;12.30;68.00;;;;;;5025364;28;88430;-47
2021/10/20 13:35:46;;;;;;;;;;;12.30;68.80;;;;;;5023231;28;88778;-58
2021/10/20 13:38:12;;;;;;;;;;;12.40;68.40;;;;;;5023392;28;88265;-45
2021/10/20 13:40:39;;;;;;;;;;;12.40;69.50;;;;;;5020535;28;87764;-49
2021/10/20 13:43:05;;;;;;;;;;;12.40;68.40;;;;;;5022258;28;88472;-49
2021/10/20 13:45:31;;;;;;;;;;;12.40;67.20;;;;;;5021418;28;87690;-45
2021/10/20 13:47:57;;;;;;;;;;;12.40;69.10;;;;;;5019111;28;88837;-49
2021/10/20 13:50:22;;;;;;;;;;;12.50;67.90;;;;;;5021664;28;88532;-45
2021/10/20 13:52:48;;;;;;;;;;;12.50;68.80;;;;;;5022695;28;88792;-47
2021/10/20 13:55:16;;;;;;;;;;;12.50;66.50;;;;;;5025380;28;88783;-45
2021/10/20 13:57:41;;;;;;;;;;;12.50;68.00;;;;;;5022108;28;89704;-48
2021/10/20 14:00:07;;;;;;;;;;;12.50;67.30;;;;;;5023102;28;88058;-49
2021/10/20 14:02:33;;;;;;;;;;;12.50;67.00;;;;;;5021051;28;88658;-53
2021/10/20 14:04:59;;;;;;;;;;;12.50;68.20;;;;;;5020690;28;87960;-48
2021/10/20 14:07:24;;;;;;;;;;;12.50;68.40;;;;;;5018854;28;88203;-58
2021/10/20 14:09:50;;;;;;;;;;;12.40;67.90;;;;;;5019345;28;87541;-61
2021/10/20 14:12:16;;;;;;;;;;;12.40;69.00;;;;;;5019598;28;89590;-60
2021/10/20 14:14:42;;;;;;;;;;;12.30;69.70;;;;;;5020789;28;87182;-56
2021/10/20 14:17:08;;;;;;;;;;;12.40;70.10;;;;;;5023640;28;88845;-61
2021/10/20 14:19:33;;;;;;;;;;;12.40;70.80;;;;;;5022288;28;87168;-58